Time;durP1;ratioP1;P1;durP2;ratioP2;P2;SDS_P1;SDS_P2;PMS_P1;PMS_P2;Temp;Humidity;BMP_temperature;BMP_pressure;BME280_temperature;BME280_humidity;BME280_pressure;Samples;Min_cycle;Max_cycle;Signal;HPM_P1;HPM_P2
2023/02/11 00:01:56;;;;;;;34.97;22.88;;;;;;;5.89;92.74;102767.84;4945904;29;20127;-78
2023/02/11 00:04:24;;;;;;;39.35;23.85;;;;;;;5.88;92.74;102768.75;4945949;29;20111;-78
2023/02/11 00:06:50;;;;;;;41.42;24.27;;;;;;;5.85;92.72;102771.47;4947867;29;20075;-79
2023/02/11 00:09:17;;;;;;;38.53;24.42;;;;;;;5.95;93.18;102777.97;4947356;29;20076;-78
2023/02/11 00:11:44;;;;;;;40.70;23.58;;;;;;;5.98;93.06;102775.22;4946662;29;20060;-77
2023/02/11 00:14:11;;;;;;;38.42;24.30;;;;;;;5.89;92.90;102763.50;4943981;29;20048;-77
2023/02/11 00:16:38;;;;;;;33.92;23.20;;;;;;;5.87;93.12;102754.06;4943911;29;20262;-78
2023/02/11 00:19:05;;;;;;;35.58;23.95;;;;;;;5.84;92.74;102749.84;4944097;29;20083;-78
2023/02/11 00:21:34;;;;;;;41.80;23.85;;;;;;;5.86;93.32;102742.81;4945426;29;20059;-78
2023/02/11 00:24:01;;;;;;;32.70;22.15;;;;;;;5.73;93.27;102743.47;4943555;29;20059;-78
2023/02/11 00:26:29;;;;;;;36.75;22.77;;;;;;;5.80;93.41;102752.66;4943218;29;20515;-78
2023/02/11 00:28:56;;;;;;;35.58;22.05;;;;;;;5.79;93.25;102761.38;4943652;29;20107;-78
2023/02/11 00:31:24;;;;;;;38.25;24.02;;;;;;;5.67;93.48;102758.44;4943669;29;20056;-78
2023/02/11 00:33:51;;;;;;;35.92;22.45;;;;;;;5.62;93.93;102763.03;4944366;29;20052;-78
2023/02/11 00:36:19;;;;;;;38.20;22.55;;;;;;;5.55;94.30;102761.63;4945118;29;20111;-78
2023/02/11 00:38:49;;;;;;;37.75;23.98;;;;;;;5.50;94.49;102760.16;4945122;29;20131;-78
2023/02/11 00:41:16;;;;;;;37.70;22.95;;;;;;;5.53;94.93;102760.88;4946208;29;20059;-78
2023/02/11 00:43:43;;;;;;;38.42;23.38;;;;;;;5.53;95.19;102760.03;4953224;29;20059;-77
2023/02/11 00:46:10;;;;;;;40.17;23.80;;;;;;;5.51;94.85;102747.13;4953652;29;20056;-77
2023/02/11 00:48:37;;;;;;;35.40;22.88;;;;;;;5.44;95.48;102745.72;4954455;29;20328;-77
2023/02/11 00:51:05;;;;;;;34.90;22.52;;;;;;;5.40;95.40;102744.16;4955925;29;20514;-78
2023/02/11 00:53:32;;;;;;;37.13;23.13;;;;;;;5.28;96.11;102744.72;4956829;29;20051;-78
2023/02/11 00:56:00;;;;;;;35.97;23.85;;;;;;;5.30;96.16;102738.56;4956703;29;20079;-77
2023/02/11 00:58:28;;;;;;;37.33;23.40;;;;;;;5.23;96.31;102736.31;4956262;29;20055;-78
2023/02/11 01:00:55;;;;;;;35.97;24.08;;;;;;;5.19;96.44;102745.16;4950854;29;20044;-77
2023/02/11 01:03:22;;;;;;;37.95;24.48;;;;;;;5.17;96.19;102736.63;4942559;29;20077;-77
2023/02/11 01:05:49;;;;;;;36.38;23.30;;;;;;;5.09;96.63;102739.56;4943010;29;20094;-78
2023/02/11 01:08:15;;;;;;;41.78;24.95;;;;;;;5.00;96.61;102733.00;4942038;29;20115;-76
2023/02/11 01:10:42;;;;;;;43.95;24.80;;;;;;;4.96;96.71;102736.66;4943410;29;20115;-78
2023/02/11 01:13:10;;;;;;;37.88;25.33;;;;;;;4.93;97.06;102746.31;4943085;29;20048;-79
2023/02/11 01:15:37;;;;;;;36.40;23.55;;;;;;;4.87;97.55;102741.41;4944144;29;20467;-77
2023/02/11 01:18:05;;;;;;;39.90;25.13;;;;;;;4.96;97.60;102747.03;4944180;29;20048;-78
2023/02/11 01:20:31;;;;;;;40.35;24.90;;;;;;;5.03;97.26;102746.75;4942361;29;20138;-78
2023/02/11 01:22:58;;;;;;;37.03;24.73;;;;;;;4.98;97.55;102753.00;4942605;29;20123;-78
2023/02/11 01:25:24;;;;;;;38.97;24.73;;;;;;;4.91;98.19;102736.00;4940303;29;20059;-80
2023/02/11 01:27:51;;;;;;;39.42;25.17;;;;;;;4.86;98.02;102730.19;4941656;29;20090;-77
2023/02/11 01:30:19;;;;;;;41.05;24.98;;;;;;;4.94;98.26;102740.22;4940511;29;20135;-78
2023/02/11 01:32:46;;;;;;;39.97;24.60;;;;;;;4.99;97.90;102739.13;4942309;29;20158;-77
2023/02/11 01:35:12;;;;;;;42.92;25.42;;;;;;;4.95;97.89;102741.91;4940897;29;20160;-77
2023/02/11 01:37:39;;;;;;;37.40;24.48;;;;;;;5.04;98.44;102735.47;4941367;29;20124;-78
2023/02/11 01:40:08;;;;;;;38.92;24.88;;;;;;;5.09;97.96;102744.75;4943772;29;20070;-78
2023/02/11 01:42:35;;;;;;;39.80;24.73;;;;;;;5.00;97.83;102751.19;4943847;29;20522;-76
2023/02/11 01:45:53;;;;;;;39.80;24.80;;;;;;;4.94;98.04;102756.63;4944412;29;20087;-77
2023/02/11 01:48:22;;;;;;;37.15;24.70;;;;;;;5.03;98.51;102750.19;4941457;29;20079;-75
2023/02/11 01:50:54;;;;;;;41.58;24.67;;;;;;;4.99;98.52;102754.69;4941855;29;20111;-75
2023/02/11 01:58:53;;;;;;;38.10;24.60;;;;;;;5.10;98.39;102766.34;4941664;29;20499;-77
2023/02/11 02:01:25;;;;;;;39.33;25.55;;;;;;;4.98;98.58;102771.16;4939049;29;20131;-78
2023/02/11 02:03:56;;;;;;;40.40;25.85;;;;;;;5.00;98.68;102764.16;4941729;29;20115;-78
2023/02/11 02:06:31;;;;;;;45.53;25.00;;;;;;;5.13;98.89;102766.22;4943856;29;20055;-77
2023/02/11 02:09:02;;;;;;;45.30;25.80;;;;;;;5.22;98.88;102770.97;4944761;29;20107;-78
2023/02/11 02:11:29;;;;;;;38.10;24.70;;;;;;;5.19;98.28;102759.00;4942022;29;20130;-77
2023/02/11 02:13:55;;;;;;;41.08;25.50;;;;;;;5.24;98.58;102757.00;4937609;29;20062;-77
2023/02/11 02:16:30;;;;;;;46.13;25.08;;;;;;;5.26;98.32;102751.75;4940853;29;20059;-78
2023/02/11 02:19:11;;;;;;;42.30;25.70;;;;;;;5.22;98.60;102737.22;4940918;29;20079;-78
2023/02/11 02:22:14;;;;;;;41.95;24.83;;;;;;;5.20;98.75;102741.66;4940657;29;20127;-79
2023/02/11 02:24:59;;;;;;;46.92;25.42;;;;;;;5.11;98.38;102737.72;4924300;29;20475;-78
2023/02/11 02:27:37;;;;;;;42.78;26.35;;;;;;;5.07;98.80;102738.78;4940607;29;20055;-79
2023/02/11 02:30:30;;;;;;;46.40;26.38;;;;;;;5.03;98.57;102739.81;4938683;29;20130;-78
2023/02/11 02:33:18;;;;;;;43.03;26.20;;;;;;;4.93;99.28;102744.56;4941711;29;20510;-79
2023/02/11 02:35:50;;;;;;;45.03;27.00;;;;;;;4.93;99.25;102744.56;4940954;29;20103;-79
2023/02/11 02:38:23;;;;;;;43.33;25.52;;;;;;;4.90;99.64;102731.75;4944559;29;20090;-79
2023/02/11 02:40:55;;;;;;;46.58;27.27;;;;;;;4.80;99.75;102732.22;4944341;29;20297;-78
2023/02/11 02:43:25;;;;;;;47.70;28.33;;;;;;;4.87;100.00;102736.22;4943804;29;20127;-78
2023/02/11 02:45:52;;;;;;;51.33;28.50;;;;;;;4.78;99.69;102729.69;4946003;29;20131;-79
2023/02/11 02:48:31;;;;;;;47.88;27.10;;;;;;;4.80;99.89;102733.03;4946060;29;20058;-78
2023/02/11 02:51:11;;;;;;;47.45;27.33;;;;;;;4.76;100.00;102715.94;4946107;29;20047;-78
2023/02/11 02:53:47;;;;;;;47.45;28.55;;;;;;;4.71;100.00;102717.06;4945549;29;20031;-79
2023/02/11 02:56:24;;;;;;;46.63;27.55;;;;;;;4.66;100.00;102710.34;4944256;29;20048;-78
2023/02/11 02:59:22;;;;;;;46.50;27.13;;;;;;;4.74;100.00;102712.56;4944996;29;20095;-78
2023/02/11 03:01:57;;;;;;;49.60;27.83;;;;;;;4.71;100.00;102711.88;4935431;29;20518;-77
2023/02/11 03:04:32;;;;;;;42.72;26.80;;;;;;;4.72;100.00;102693.66;4944453;29;20126;-79
2023/02/11 03:07:05;;;;;;;47.35;27.20;;;;;;;4.65;100.00;102697.44;4945066;29;20094;-77
2023/02/11 03:09:33;;;;;;;;;;;;;;;4.69;100.00;102701.59;4949721;29;20509;-78
2023/02/11 03:12:03;;;;;;;45.35;28.27;;;;;;;4.72;100.00;102685.88;4950860;29;19930;-76
2023/02/11 03:14:32;;;;;;;53.45;31.20;;;;;;;4.77;100.00;102680.47;4951696;29;20048;-77
2023/02/11 03:17:01;;;;;;;58.75;31.73;;;;;;;4.76;100.00;102690.00;4950316;29;20120;-77
2023/02/11 03:19:34;;;;;;;49.88;29.60;;;;;;;4.80;100.00;102696.72;4944501;29;20048;-77
2023/02/11 03:22:05;;;;;;;50.13;31.02;;;;;;;4.81;100.00;102698.41;4942013;29;20052;-76
2023/02/11 03:24:34;;;;;;;51.22;30.33;;;;;;;4.84;100.00;102697.44;4941930;29;20191;-76
2023/02/11 03:27:08;;;;;;;51.97;29.80;;;;;;;4.94;99.92;102703.91;4942807;29;20051;-76
2023/02/11 03:29:39;;;;;;;51.70;29.77;;;;;;;4.97;100.00;102703.78;4942531;29;20114;-77
2023/02/11 03:32:14;;;;;;;52.67;32.13;;;;;;;5.03;99.59;102700.06;4941989;29;20107;-74
2023/02/11 03:34:48;;;;;;;51.45;30.85;;;;;;;5.05;99.08;102693.88;4942314;29;20082;-75
2023/02/11 03:37:19;;;;;;;48.00;29.92;;;;;;;5.04;99.34;102692.22;4942274;29;20116;-76
2023/02/11 03:39:51;;;;;;;46.83;29.35;;;;;;;5.06;98.76;102697.31;4943476;29;20128;-76
2023/02/11 03:42:19;;;;;;;43.80;28.10;;;;;;;5.08;99.20;102677.34;4943165;29;20056;-77
2023/02/11 03:44:49;;;;;;;48.28;28.58;;;;;;;5.04;99.11;102668.84;4944439;29;20067;-77
2023/02/11 03:47:21;;;;;;;51.65;30.17;;;;;;;5.05;99.19;102678.31;4948700;29;20094;-77
2023/02/11 03:49:51;;;;;;;48.75;28.45;;;;;;;5.05;98.75;102665.34;4947270;29;20052;-76
2023/02/11 03:52:20;;;;;;;43.53;29.33;;;;;;;4.99;99.23;102666.47;4950267;29;20086;-79
2023/02/11 03:54:51;;;;;;;46.08;28.35;;;;;;;4.95;98.94;102674.47;4949028;29;20048;-78
2023/02/11 03:57:17;;;;;;;44.47;27.75;;;;;;;4.96;99.19;102679.56;4949956;29;20531;-77
2023/02/11 03:59:53;;;;;;;45.63;27.15;;;;;;;4.99;99.54;102676.00;4950215;29;20062;-77
2023/02/11 04:02:21;;;;;;;48.83;26.88;;;;;;;4.95;99.08;102685.69;4949718;29;20075;-77
2023/02/11 04:04:49;;;;;;;47.13;27.25;;;;;;;5.02;99.52;102693.19;4950114;29;20127;-78
2023/02/11 04:07:15;;;;;;;44.42;26.25;;;;;;;5.08;99.87;102690.31;4951121;29;20130;-76
2023/02/11 04:09:42;;;;;;;47.85;27.25;;;;;;;5.07;99.12;102688.63;4947973;29;20138;-75
2023/02/11 04:12:08;;;;;;;43.65;26.27;;;;;;;5.07;99.60;102706.78;4948787;29;20059;-76
2023/02/11 04:14:35;;;;;;;48.85;28.40;;;;;;;5.08;99.20;102701.53;4950232;29;20083;-77
2023/02/11 04:17:02;;;;;;;48.22;27.42;;;;;;;5.12;99.73;102708.28;4949744;29;20134;-77
2023/02/11 04:19:28;;;;;;;45.33;27.05;;;;;;;5.11;99.20;102700.56;4949773;29;20086;-76
2023/02/11 04:21:57;;;;;;;46.42;27.20;;;;;;;5.07;99.38;102686.03;4946240;29;20059;-76
2023/02/11 04:24:24;;;;;;;44.88;26.92;;;;;;;5.06;99.69;102682.59;4946132;29;20130;-77
2023/02/11 04:26:51;;;;;;;50.65;27.90;;;;;;;5.11;99.81;102682.41;4948779;29;20119;-77
2023/02/11 04:29:18;;;;;;;49.08;26.10;;;;;;;5.13;100.00;102673.63;4947486;29;20115;-77
2023/02/11 04:31:44;;;;;;;52.05;27.23;;;;;;;5.09;100.00;102666.88;4947807;29;20112;-77
2023/02/11 04:34:11;;;;;;;40.72;25.88;;;;;;;5.11;100.00;102666.81;4948398;29;20087;-77
2023/02/11 04:36:38;;;;;;;46.22;25.48;;;;;;;5.14;99.80;102658.91;4947032;29;20056;-78
2023/02/11 04:39:06;;;;;;;47.55;26.55;;;;;;;5.14;100.00;102671.88;4945219;29;20055;-78
2023/02/11 04:41:32;;;;;;;42.83;27.00;;;;;;;5.18;100.00;102660.44;4945857;29;20086;-76
2023/02/11 04:43:59;;;;;;;41.58;25.65;;;;;;;5.13;100.00;102662.41;4945908;29;20083;-77
2023/02/11 04:46:26;;;;;;;44.03;27.08;;;;;;;5.12;99.96;102673.69;4945178;29;20143;-77
2023/02/11 04:48:52;;;;;;;46.35;25.42;;;;;;;5.16;100.00;102677.84;4945522;29;20119;-77
2023/02/11 04:51:19;;;;;;;44.95;25.42;;;;;;;5.14;100.00;102664.09;4945851;29;20135;-78
2023/02/11 04:53:45;;;;;;;44.78;25.77;;;;;;;5.14;100.00;102667.53;4946835;29;20131;-78
2023/02/11 04:56:13;;;;;;;48.75;26.35;;;;;;;5.16;100.00;102663.09;4945629;29;20066;-78
2023/02/11 04:58:40;;;;;;;47.88;25.48;;;;;;;5.18;100.00;102670.81;4946198;29;20135;-77
2023/02/11 05:01:08;;;;;;;44.22;26.40;;;;;;;5.20;100.00;102669.00;4945726;29;20111;-77
2023/02/11 05:03:35;;;;;;;45.80;25.92;;;;;;;5.15;100.00;102669.22;4945629;29;20043;-78
2023/02/11 05:06:04;;;;;;;44.00;25.88;;;;;;;5.16;100.00;102675.25;4943563;29;20123;-77
2023/02/11 05:08:31;;;;;;;48.00;26.67;;;;;;;5.17;100.00;102675.16;4943804;29;20447;-78
2023/02/11 05:10:58;;;;;;;46.45;26.63;;;;;;;5.17;100.00;102663.94;4944061;29;20105;-77
2023/02/11 05:13:26;;;;;;;47.75;25.80;;;;;;;5.17;100.00;102671.72;4943902;29;20115;-78
2023/02/11 05:15:53;;;;;;;45.30;26.42;;;;;;;5.18;100.00;102673.41;4945596;29;20047;-78
2023/02/11 05:18:19;;;;;;;45.65;25.55;;;;;;;5.16;100.00;102670.88;4944050;29;20044;-77
2023/02/11 05:20:46;;;;;;;44.42;25.30;;;;;;;5.15;100.00;102673.56;4943486;29;20138;-78
2023/02/11 05:23:13;;;;;;;46.92;26.75;;;;;;;5.16;100.00;102668.28;4943800;29;20111;-77
2023/02/11 05:25:40;;;;;;;47.15;26.02;;;;;;;5.17;100.00;102669.13;4943093;29;20128;-77
2023/02/11 05:28:06;;;;;;;46.38;26.58;;;;;;;5.19;100.00;102675.09;4942633;29;20134;-77
2023/02/11 05:30:34;;;;;;;56.80;29.13;;;;;;;5.19;100.00;102677.69;4942285;29;20078;-77
2023/02/11 05:33:01;;;;;;;43.40;26.30;;;;;;;5.19;100.00;102669.91;4941890;29;20134;-77
2023/02/11 05:35:28;;;;;;;45.33;27.17;;;;;;;5.16;100.00;102672.66;4947783;29;20071;-78
2023/02/11 05:37:54;;;;;;;49.97;27.63;;;;;;;5.13;100.00;102668.44;4950330;29;20052;-78
2023/02/11 05:40:21;;;;;;;50.38;29.00;;;;;;;5.09;100.00;102666.88;4949616;29;20079;-79
2023/02/11 05:42:48;;;;;;;53.55;29.08;;;;;;;5.07;100.00;102673.06;4945877;29;20089;-78
2023/02/11 05:45:14;;;;;;;51.72;29.70;;;;;;;5.11;100.00;102669.41;4944747;29;20556;-78
2023/02/11 05:47:42;;;;;;;46.58;27.67;;;;;;;5.09;100.00;102672.09;4943737;29;20107;-78
2023/02/11 05:50:09;;;;;;;50.63;29.60;;;;;;;5.13;100.00;102677.97;4935617;29;20086;-78
2023/02/11 05:52:36;;;;;;;59.40;29.25;;;;;;;5.12;100.00;102666.75;4941681;29;20130;-78
2023/02/11 05:55:02;;;;;;;52.72;29.13;;;;;;;5.08;100.00;102667.81;4940875;29;20135;-77
2023/02/11 05:57:29;;;;;;;56.05;29.73;;;;;;;5.13;100.00;102667.59;4941662;29;20506;-78
2023/02/11 05:59:55;;;;;;;55.20;31.20;;;;;;;5.09;100.00;102666.06;4946119;29;20074;-78
2023/02/11 06:02:22;;;;;;;50.47;28.55;;;;;;;5.10;100.00;102667.72;4945282;29;20126;-78
2023/02/11 06:04:50;;;;;;;54.47;30.15;;;;;;;5.06;100.00;102667.03;4946081;29;20075;-78
2023/02/11 06:07:18;;;;;;;55.35;30.08;;;;;;;5.07;100.00;102658.34;4945133;29;20134;-78
2023/02/11 06:09:45;;;;;;;53.45;30.70;;;;;;;5.00;100.00;102656.94;4942874;29;20055;-77
2023/02/11 06:12:11;;;;;;;51.42;29.80;;;;;;;4.95;100.00;102653.72;4941470;29;20086;-78
2023/02/11 06:14:38;;;;;;;54.50;31.35;;;;;;;5.03;100.00;102655.94;4942196;29;20135;-78
2023/02/11 06:17:05;;;;;;;52.42;29.00;;;;;;;5.10;100.00;102660.78;4942417;29;20082;-78
2023/02/11 06:19:32;;;;;;;47.58;29.67;;;;;;;5.07;100.00;102658.34;4942499;29;20090;-79
2023/02/11 06:22:00;;;;;;;53.63;29.63;;;;;;;5.04;100.00;102655.03;4945096;29;20078;-78
2023/02/11 06:24:26;;;;;;;52.72;30.63;;;;;;;5.09;100.00;102660.84;4943995;29;20107;-79
2023/02/11 06:26:53;;;;;;;62.15;33.10;;;;;;;5.09;100.00;102658.25;4942864;29;20058;-78
2023/02/11 06:29:19;;;;;;;51.15;29.13;;;;;;;5.06;100.00;102667.03;4944575;29;20123;-77
2023/02/11 06:31:46;;;;;;;52.10;30.50;;;;;;;5.13;100.00;102667.59;4943941;29;20111;-79
2023/02/11 06:34:13;;;;;;;58.28;31.35;;;;;;;5.11;100.00;102664.22;4944241;29;20086;-78
2023/02/11 06:36:40;;;;;;;62.90;31.55;;;;;;;5.14;100.00;102661.50;4942002;29;20103;-78
2023/02/11 06:39:08;;;;;;;52.70;32.30;;;;;;;5.10;100.00;102665.13;4942714;29;20051;-76
2023/02/11 06:41:34;;;;;;;54.30;30.17;;;;;;;5.19;100.00;102672.50;4942492;29;20115;-78
2023/02/11 06:44:01;;;;;;;54.55;31.33;;;;;;;5.12;100.00;102666.75;4944177;29;20130;-77
2023/02/11 06:46:28;;;;;;;59.33;31.35;;;;;;;5.07;100.00;102679.09;4942570;29;20079;-79
2023/02/11 06:48:54;;;;;;;52.70;30.55;;;;;;;5.16;100.00;102667.44;4942191;29;20095;-78
2023/02/11 06:51:21;;;;;;;58.97;31.42;;;;;;;5.20;100.00;102669.81;4951055;29;20083;-77
2023/02/11 06:53:48;;;;;;;55.30;32.28;;;;;;;5.17;100.00;102680.34;4950745;29;20148;-78
2023/02/11 06:56:18;;;;;;;70.07;33.58;;;;;;;5.18;100.00;102687.22;4950265;29;20149;-78
2023/02/11 06:58:45;;;;;;;60.10;33.08;;;;;;;5.24;100.00;102684.31;4949220;29;20092;-78
2023/02/11 07:01:14;;;;;;;54.65;32.03;;;;;;;5.25;100.00;102691.19;4945853;29;20098;-78
2023/02/11 07:03:43;;;;;;;59.22;30.80;;;;;;;5.28;100.00;102690.22;4945083;29;20088;-77
2023/02/11 07:06:13;;;;;;;61.92;32.70;;;;;;;5.23;100.00;102702.56;4941497;29;20139;-77
2023/02/11 07:08:41;;;;;;;66.97;34.70;;;;;;;5.25;100.00;102692.94;4938957;29;20111;-77
2023/02/11 07:11:10;;;;;;;67.65;34.53;;;;;;;5.18;100.00;102682.03;4937640;29;20052;-77
2023/02/11 07:13:38;;;;;;;65.97;33.78;;;;;;;5.20;100.00;102694.94;4938193;29;20225;-77
2023/02/11 07:16:06;;;;;;;68.60;35.03;;;;;;;5.18;100.00;102699.38;4937699;29;20052;-77
2023/02/11 07:18:33;;;;;;;72.15;34.20;;;;;;;5.21;100.00;102691.41;4930751;29;20131;-77
2023/02/11 07:21:00;;;;;;;66.20;34.20;;;;;;;5.20;100.00;102702.72;4940925;29;20082;-79
2023/02/11 07:23:26;;;;;;;61.90;34.60;;;;;;;5.19;100.00;102706.25;4943160;29;20526;-79
2023/02/11 07:25:53;;;;;;;66.95;34.60;;;;;;;5.19;100.00;102694.09;4943946;29;20104;-78
2023/02/11 07:28:19;;;;;;;70.10;36.67;;;;;;;5.17;100.00;102695.09;4943628;29;20142;-79
2023/02/11 07:30:47;;;;;;;83.70;38.45;;;;;;;5.17;100.00;102695.09;4944145;29;20050;-78
2023/02/11 07:33:14;;;;;;;71.20;36.85;;;;;;;5.17;100.00;102693.34;4941862;29;20094;-75
2023/02/11 07:35:41;;;;;;;68.22;36.03;;;;;;;5.16;100.00;102698.59;4933609;29;20134;-76
2023/02/11 07:38:07;;;;;;;74.53;36.33;;;;;;;5.16;100.00;102706.38;4942284;29;20111;-77
2023/02/11 07:40:34;;;;;;;74.28;36.10;;;;;;;5.14;100.00;102710.78;4942703;29;20074;-79
2023/02/11 07:43:01;;;;;;;79.68;37.50;;;;;;;5.21;100.00;102719.97;4939595;29;20142;-77
2023/02/11 07:45:28;;;;;;;73.55;38.17;;;;;;;5.17;100.00;102728.81;4940942;29;20047;-78
2023/02/11 07:47:59;;;;;;;83.00;37.40;;;;;;;5.18;100.00;102731.34;4933945;29;20126;-77
2023/02/11 07:50:26;;;;;;;76.97;36.20;;;;;;;5.19;100.00;102729.59;4938666;29;20083;-78
2023/02/11 07:52:52;;;;;;;77.63;36.65;;;;;;;5.19;100.00;102739.97;4941489;29;20087;-79
2023/02/11 07:55:19;;;;;;;79.22;36.47;;;;;;;5.21;100.00;102738.13;4941807;29;20108;-79
2023/02/11 07:57:46;;;;;;;80.65;38.53;;;;;;;5.26;100.00;102747.38;4941445;29;20138;-79
2023/02/11 08:00:14;;;;;;;76.32;35.20;;;;;;;5.26;100.00;102751.75;4936075;29;20146;-79
2023/02/11 08:02:40;;;;;;;80.45;37.50;;;;;;;5.31;100.00;102754.97;4942028;29;20107;-79
2023/02/11 08:05:09;;;;;;;80.70;37.97;;;;;;;5.28;100.00;102752.50;4939265;29;20111;-78
2023/02/11 08:07:35;;;;;;;81.88;35.67;;;;;;;5.28;100.00;102765.50;4942091;29;20063;-79
2023/02/11 08:10:02;;;;;;;74.63;35.75;;;;;;;5.26;100.00;102762.97;4936061;29;20061;-78
2023/02/11 08:12:29;;;;;;;75.50;35.70;;;;;;;5.38;100.00;102766.75;4937427;29;20083;-78
2023/02/11 08:14:55;;;;;;;77.28;38.63;;;;;;;5.37;100.00;102765.06;4936555;29;20086;-78
2023/02/11 08:17:22;;;;;;;88.55;38.25;;;;;;;5.35;100.00;102756.50;4940776;29;20507;-77
2023/02/11 08:19:51;;;;;;;86.80;38.95;;;;;;;5.41;100.00;102755.41;4939152;29;20486;-77
2023/02/11 08:22:19;;;;;;;82.30;37.03;;;;;;;5.45;100.00;102752.59;4937153;29;20052;-77
2023/02/11 08:24:45;;;;;;;80.80;36.80;;;;;;;5.44;100.00;102769.09;4938322;29;20138;-78
2023/02/11 08:27:12;;;;;;;72.82;34.92;;;;;;;5.46;100.00;102764.66;4934662;29;20131;-77
2023/02/11 08:29:38;;;;;;;75.35;35.10;;;;;;;5.51;100.00;102760.09;4940711;29;20048;-78
2023/02/11 08:32:05;;;;;;;75.32;35.15;;;;;;;5.49;100.00;102759.31;4940016;29;20102;-76
2023/02/11 08:34:32;;;;;;;70.20;33.42;;;;;;;5.52;100.00;102754.00;4937601;29;20126;-77
2023/02/11 08:36:59;;;;;;;74.78;33.85;;;;;;;5.56;100.00;102765.91;4937660;29;20752;-78
2023/02/11 08:39:27;;;;;;;73.75;34.10;;;;;;;5.57;100.00;102765.00;4941719;29;20083;-78
2023/02/11 08:41:55;;;;;;;67.97;34.45;;;;;;;5.58;100.00;102766.69;4942255;29;20107;-78
2023/02/11 08:44:23;;;;;;;74.35;35.53;;;;;;;5.62;100.00;102770.00;4939929;29;20525;-78
2023/02/11 08:46:50;;;;;;;76.32;34.25;;;;;;;5.68;100.00;102769.69;4934179;29;20078;-78
2023/02/11 08:49:17;;;;;;;71.07;32.95;;;;;;;5.66;100.00;102764.59;4941633;29;20132;-78
2023/02/11 08:51:45;;;;;;;67.30;32.95;;;;;;;5.68;100.00;102770.50;4940655;29;20502;-78
2023/02/11 08:54:11;;;;;;;77.95;34.80;;;;;;;5.64;100.00;102771.59;4935730;29;20150;-78
2023/02/11 08:56:40;;;;;;;69.68;34.90;;;;;;;5.64;100.00;102770.75;4928941;29;20119;-79
2023/02/11 08:59:07;;;;;;;70.63;35.35;;;;;;;5.63;100.00;102772.50;4944027;29;20570;-76
2023/02/11 09:01:34;;;;;;;67.75;35.15;;;;;;;5.68;100.00;102786.09;4943910;29;20044;-76
2023/02/11 09:04:02;;;;;;;63.80;32.60;;;;;;;5.67;100.00;102797.41;4932456;29;20138;-78
2023/02/11 09:06:29;;;;;;;65.70;32.35;;;;;;;5.67;100.00;102802.59;4935257;29;20522;-76
2023/02/11 09:08:57;;;;;;;69.15;33.13;;;;;;;5.68;100.00;102801.69;4929887;29;20087;-77
2023/02/11 09:11:28;;;;;;;67.22;32.80;;;;;;;5.70;100.00;102793.81;4928773;29;20075;-76
2023/02/11 09:13:56;;;;;;;61.92;33.22;;;;;;;5.71;100.00;102807.66;4931976;29;20054;-76
2023/02/11 09:16:24;;;;;;;65.85;32.83;;;;;;;5.72;100.00;102809.34;4926475;29;20043;-76
2023/02/11 09:18:51;;;;;;;59.95;32.35;;;;;;;5.73;100.00;102813.63;4929194;29;20059;-76
2023/02/11 09:21:19;;;;;;;65.07;33.47;;;;;;;5.79;100.00;102797.75;4934678;29;20462;-77
2023/02/11 09:23:46;;;;;;;64.63;32.55;;;;;;;5.77;100.00;102800.41;4935417;29;20060;-77
2023/02/11 09:26:15;;;;;;;67.05;32.55;;;;;;;5.78;100.00;102807.31;4934570;29;20139;-76
2023/02/11 09:28:42;;;;;;;62.33;32.47;;;;;;;5.79;100.00;102806.38;4935215;29;20131;-78
2023/02/11 09:31:12;;;;;;;63.08;31.13;;;;;;;5.85;100.00;102798.31;4934283;29;20138;-78
2023/02/11 09:33:46;;;;;;;63.38;30.42;;;;;;;5.88;100.00;102792.13;4935209;29;20641;-78
2023/02/11 09:36:14;;;;;;;61.80;31.67;;;;;;;5.85;100.00;102790.50;4936652;29;20055;-78
2023/02/11 09:38:40;;;;;;;64.53;33.85;;;;;;;5.93;100.00;102797.97;4943634;29;20518;-79
2023/02/11 09:41:25;;;;;;;59.10;32.30;;;;;;;5.93;100.00;102800.56;4941503;29;20185;-78
2023/02/11 09:43:55;;;;;;;60.58;31.85;;;;;;;5.93;100.00;102806.63;4933882;29;20459;-77
2023/02/11 09:46:25;;;;;;;58.67;31.52;;;;;;;5.98;100.00;102809.00;4933397;29;20058;-78
2023/02/11 09:48:55;;;;;;;59.67;31.13;;;;;;;5.99;100.00;102805.47;4935993;29;20052;-77
2023/02/11 09:51:35;;;;;;;59.95;31.10;;;;;;;6.03;100.00;102814.81;4934883;29;20058;-77
2023/02/11 09:54:13;;;;;;;58.13;30.35;;;;;;;6.07;100.00;102810.31;4934142;29;20075;-78
2023/02/11 09:56:39;;;;;;;56.92;30.90;;;;;;;6.04;100.00;102813.91;4927696;29;20130;-76
2023/02/11 09:59:11;;;;;;;52.70;31.02;;;;;;;6.07;100.00;102815.53;4935662;29;20479;-77
2023/02/11 10:01:45;;;;;;;65.68;32.88;;;;;;;6.07;100.00;102818.13;4936456;29;20047;-78
2023/02/11 10:04:18;;;;;;;57.38;30.33;;;;;;;6.11;100.00;102824.84;4936313;29;20130;-77
2023/02/11 10:06:48;;;;;;;60.30;30.27;;;;;;;6.15;100.00;102827.22;4936073;29;20052;-78
2023/02/11 10:10:03;;;;;;;57.10;29.65;;;;;;;6.15;100.00;102828.97;4938557;29;20178;-79
2023/02/11 10:12:46;;;;;;;57.30;31.00;;;;;;;6.12;100.00;102822.19;4920467;29;20466;-79
2023/02/11 10:15:22;;;;;;;57.33;30.42;;;;;;;6.13;100.00;102828.22;4937320;29;20107;-77
2023/02/11 10:18:17;;;;;;;56.63;30.90;;;;;;;6.19;100.00;102831.34;4937479;29;20055;-77
2023/02/11 10:20:53;;;;;;;57.05;30.52;;;;;;;6.14;100.00;102832.50;4923794;29;20048;-78
2023/02/11 10:23:24;;;;;;;53.13;29.38;;;;;;;6.15;100.00;102837.59;4934339;29;20055;-77
2023/02/11 10:25:55;;;;;;;54.08;29.42;;;;;;;6.19;100.00;102843.50;4934446;29;20055;-77
2023/02/11 10:28:23;;;;;;;56.55;31.17;;;;;;;6.23;100.00;102851.09;4934066;29;20134;-78
2023/02/11 10:30:58;;;;;;;52.78;30.02;;;;;;;6.24;100.00;102847.56;4937115;29;20043;-79
2023/02/11 10:33:31;;;;;;;58.67;29.67;;;;;;;6.25;100.00;102846.66;4940938;29;20162;-78
2023/02/11 10:35:58;;;;;;;53.13;28.83;;;;;;;6.26;100.00;102837.94;4935803;29;20047;-77
2023/02/11 10:38:25;;;;;;;56.70;29.85;;;;;;;6.26;100.00;102832.72;4933871;29;20143;-78
2023/02/11 10:40:51;;;;;;;57.80;30.15;;;;;;;6.17;100.00;102834.94;4934170;29;20062;-77
2023/02/11 10:43:22;;;;;;;57.05;31.33;;;;;;;6.23;100.00;102835.47;4934447;29;20488;-78
2023/02/11 10:45:51;;;;;;;64.55;31.55;;;;;;;6.19;100.00;102833.94;4930856;29;20103;-81
2023/02/11 10:48:41;;;;;;;64.18;32.25;;;;;;;6.23;100.00;102845.88;4942077;29;20192;-79
2023/02/11 10:51:15;;;;;;;60.17;31.90;;;;;;;6.19;100.00;102846.94;4938107;29;20134;-78
2023/02/11 10:53:42;;;;;;;59.50;31.02;;;;;;;6.32;100.00;102850.63;4936403;29;20083;-78
2023/02/11 10:56:12;;;;;;;56.15;31.92;;;;;;;6.26;100.00;102850.09;4935845;29;20558;-78
2023/02/11 10:58:44;;;;;;;64.22;31.50;;;;;;;6.20;100.00;102848.63;4939339;29;20051;-78
2023/02/11 11:01:14;;;;;;;64.50;32.08;;;;;;;6.18;100.00;102845.25;4931471;29;20542;-77
2023/02/11 11:03:49;;;;;;;61.90;31.73;;;;;;;6.18;100.00;102844.41;4938680;29;20052;-78
2023/02/11 11:06:16;;;;;;;61.20;30.80;;;;;;;6.22;100.00;102839.00;4937341;29;20134;-76
2023/02/11 11:08:45;;;;;;;59.88;32.47;;;;;;;6.25;100.00;102851.00;4937445;29;20068;-76
2023/02/11 11:11:14;;;;;;;61.15;31.38;;;;;;;6.27;100.00;102852.63;4937199;29;20048;-76
2023/02/11 11:13:54;;;;;;;60.70;30.92;;;;;;;6.29;100.00;102853.38;4938257;29;20048;-77
2023/02/11 11:16:23;;;;;;;64.72;32.15;;;;;;;6.34;100.00;102850.56;4940533;29;20134;-78
2023/02/11 11:18:53;;;;;;;59.33;31.08;;;;;;;6.33;100.00;102852.31;4939689;29;20060;-76
2023/02/11 11:21:23;;;;;;;63.85;32.90;;;;;;;6.37;100.00;102852.19;4940455;29;20536;-78
2023/02/11 11:23:56;;;;;;;63.83;32.42;;;;;;;6.41;100.00;102848.50;4937299;29;20146;-77
2023/02/11 11:26:25;;;;;;;61.53;31.73;;;;;;;6.36;100.00;102847.91;4936571;29;20044;-77
2023/02/11 11:28:58;;;;;;;63.72;33.40;;;;;;;6.35;100.00;102844.44;4938429;29;20084;-79